Time;durP1;ratioP1;P1;durP2;ratioP2;P2;SDS_P1;SDS_P2;PMS_P1;PMS_P2;Temp;Humidity;BMP_temperature;BMP_pressure;BME280_temperature;BME280_humidity;BME280_pressure;Samples;Min_cycle;Max_cycle;Signal;HPM_P1;HPM_P2
2021/12/25 00:02:20;;;;;;;22.10;11.20;;;;;;;-12.43;74.77;97707.28;4890210;29;20336;-56
2021/12/25 00:04:47;;;;;;;23.67;11.00;;;;;;;-12.33;75.61;97687.69;4889827;29;20025;-55
2021/12/25 00:07:13;;;;;;;19.58;11.32;;;;;;;-12.29;74.67;97686.19;4890078;29;20191;-56
2021/12/25 00:09:38;;;;;;;21.77;11.98;;;;;;;-12.30;75.28;97698.59;4888868;29;20101;-56
2021/12/25 00:12:04;;;;;;;18.48;10.95;;;;;;;-12.34;74.98;97687.66;4890471;29;20033;-56
2021/12/25 00:14:29;;;;;;;20.95;10.90;;;;;;;-12.48;74.67;97676.31;4888981;29;20044;-56
2021/12/25 00:16:57;;;;;;;21.10;11.70;;;;;;;-12.30;74.99;97679.47;4888522;29;20072;-56
2021/12/25 00:19:23;;;;;;;19.25;10.98;;;;;;;-12.29;74.82;97670.38;4888978;29;20041;-57
2021/12/25 00:21:48;;;;;;;12.07;6.95;;;;;;;-12.41;73.81;97664.16;4888858;29;20223;-56
2021/12/25 00:24:14;;;;;;;20.33;9.65;;;;;;;-12.48;74.22;97667.22;4894041;29;20045;-57
2021/12/25 00:27:02;;;;;;;20.83;11.32;;;;;;;-12.53;76.06;97649.59;4890542;29;20033;-57
2021/12/25 00:34:34;;;;;;;19.45;9.90;;;;;;;-12.53;77.10;97624.66;4889312;29;20024;-56
2021/12/25 00:36:59;;;;;;;21.80;10.80;;;;;;;-12.54;77.20;97602.19;4889406;29;20024;-56
2021/12/25 00:39:28;;;;;;;17.30;9.98;;;;;;;-12.40;76.95;97605.16;4888125;29;20033;-55
2021/12/25 00:41:54;;;;;;;20.48;10.73;;;;;;;-12.22;76.61;97602.47;4903303;29;20085;-56
2021/12/25 00:44:19;;;;;;;19.92;10.68;;;;;;;-12.41;76.34;97591.00;4888695;29;20041;-56
2021/12/25 00:46:45;;;;;;;18.40;10.20;;;;;;;-12.37;76.55;97587.81;4889874;29;20037;-57
2021/12/25 00:49:10;;;;;;;20.63;10.48;;;;;;;-12.58;77.03;97578.81;4888317;29;20037;-57
2021/12/25 00:51:36;;;;;;;17.95;9.85;;;;;;;-12.42;77.18;97579.34;4888356;29;20037;-57
2021/12/25 00:54:01;;;;;;;22.95;10.73;;;;;;;-12.42;76.66;97552.75;4882762;29;20062;-58
2021/12/25 00:56:27;;;;;;;24.15;11.02;;;;;;;-12.29;77.62;97553.19;4875603;29;20039;-58
2021/12/25 00:58:52;;;;;;;19.00;10.73;;;;;;;-12.36;77.77;97544.63;4894204;29;20120;-58
2021/12/25 01:01:18;;;;;;;19.73;9.75;;;;;;;-12.44;76.91;97519.47;4888420;29;20284;-57
2021/12/25 01:03:43;;;;;;;17.00;10.35;;;;;;;-12.43;76.77;97523.63;4907084;29;20088;-57
2021/12/25 01:06:09;;;;;;;13.38;7.90;;;;;;;-12.45;76.21;97532.72;4888092;29;20202;-56
2021/12/25 01:08:35;;;;;;;22.95;11.63;;;;;;;-12.35;77.04;97522.25;4892123;29;20033;-57
2021/12/25 01:11:00;;;;;;;21.40;10.70;;;;;;;-12.30;76.46;97524.03;4889174;29;20080;-57
2021/12/25 01:13:30;;;;;;;19.23;10.85;;;;;;;-12.23;76.80;97521.78;4887324;29;20029;-57
2021/12/25 01:19:31;;;;;;;;;;;;;;;-12.24;76.94;97507.66;4889803;29;20037;-57
2021/12/25 01:30:09;;;;;;;20.05;10.27;;;;;;;-12.27;76.07;97489.22;4886826;29;20037;-57
2021/12/25 01:48:38;;;;;;;17.83;10.93;;;;;;;-12.33;77.44;97433.38;4891273;29;20039;-56
2021/12/25 01:51:04;;;;;;;21.30;11.43;;;;;;;-12.36;77.04;97448.25;4906009;29;20048;-55
2021/12/25 01:53:29;;;;;;;21.90;10.93;;;;;;;-12.65;76.96;97441.47;4891081;29;20025;-57
2021/12/25 01:55:57;;;;;;;20.38;11.32;;;;;;;-12.46;77.37;97423.81;4891158;29;20025;-55
2021/12/25 01:58:22;;;;;;;26.38;13.30;;;;;;;-12.42;76.87;97429.75;4892500;29;20036;-56
2021/12/25 02:00:52;;;;;;;22.15;11.35;;;;;;;-12.34;76.70;97423.34;4890198;29;20024;-54
2021/12/25 02:03:22;;;;;;;22.02;12.88;;;;;;;-12.38;76.13;97441.53;4895552;29;20131;-56
2021/12/25 02:05:48;;;;;;;23.83;11.75;;;;;;;-12.29;76.75;97418.53;4883342;29;20045;-56
2021/12/25 02:08:13;;;;;;;23.25;13.10;;;;;;;-12.15;76.51;97407.34;4891282;29;20060;-55
2021/12/25 02:10:39;;;;;;;28.33;12.52;;;;;;;-12.19;76.42;97405.53;4897618;29;20120;-55
2021/12/25 02:13:05;;;;;;;29.60;13.15;;;;;;;-12.19;76.36;97388.09;4890372;29;20029;-56
2021/12/25 02:15:33;;;;;;;24.20;13.30;;;;;;;-12.17;76.72;97374.00;4892246;29;20057;-56
2021/12/25 02:20:32;;;;;;;28.75;12.70;;;;;;;-12.23;76.74;97377.16;4891124;29;20056;-55
2021/12/25 02:23:04;;;;;;;26.95;13.40;;;;;;;-11.95;77.87;97369.63;4890745;29;20028;-55
2021/12/25 02:25:35;;;;;;;23.27;12.80;;;;;;;-11.71;77.06;97387.81;4891985;29;20099;-56
2021/12/25 02:28:02;;;;;;;27.13;13.07;;;;;;;-11.67;75.65;97366.25;4890957;29;20049;-55
2021/12/25 02:30:28;;;;;;;22.15;12.93;;;;;;;-11.82;76.18;97347.56;4890136;29;20318;-55
2021/12/25 02:32:54;;;;;;;23.00;13.13;;;;;;;-11.80;75.28;97362.56;4890787;29;20037;-56
2021/12/25 02:35:20;;;;;;;17.45;9.93;;;;;;;-12.08;75.98;97355.97;4908434;29;20029;-56
2021/12/25 02:37:45;;;;;;;23.88;10.60;;;;;;;-11.90;76.08;97339.00;4890581;29;20269;-57
2021/12/25 02:40:14;;;;;;;24.80;12.38;;;;;;;-12.26;76.12;97274.84;4892575;29;20029;-55
2021/12/25 02:42:40;;;;;;;19.85;11.90;;;;;;;-11.82;77.00;97326.75;4891202;29;20033;-54
2021/12/25 02:45:15;;;;;;;26.88;13.23;;;;;;;-12.22;75.94;97256.66;4900222;29;20204;-57
2021/12/25 02:47:42;;;;;;;20.95;14.05;;;;;;;-11.58;76.03;97314.09;4890948;29;20047;-55
2021/12/25 02:50:09;;;;;;;22.92;13.00;;;;;;;-11.84;76.60;97304.25;4891487;29;20077;-56
2021/12/25 02:52:35;;;;;;;23.35;13.52;;;;;;;-11.59;77.50;97311.56;4891578;29;20037;-55
2021/12/25 02:55:01;;;;;;;24.38;12.93;;;;;;;-11.68;76.67;97302.19;4905021;29;20036;-55
2021/12/25 02:57:26;;;;;;;21.98;12.13;;;;;;;-11.77;77.13;97302.78;4889742;29;20056;-57
2021/12/25 02:59:52;;;;;;;27.98;13.77;;;;;;;-11.55;76.98;97299.22;4890257;29;20041;-56
2021/12/25 03:02:17;;;;;;;24.75;13.35;;;;;;;-11.58;76.08;97288.31;4890808;29;20041;-56
2021/12/25 03:04:46;;;;;;;24.75;13.45;;;;;;;-11.53;76.45;97271.78;4889568;29;20147;-57
2021/12/25 03:07:12;;;;;;;25.40;13.68;;;;;;;-11.49;76.90;97278.56;4889990;29;20314;-55
2021/12/25 03:09:40;;;;;;;28.40;13.57;;;;;;;-11.58;76.12;97273.34;4889881;29;20041;-56
2021/12/25 03:12:08;;;;;;;23.08;12.07;;;;;;;-11.57;77.01;97285.00;4891011;29;20397;-56
2021/12/25 03:14:40;;;;;;;18.42;11.77;;;;;;;-11.66;76.73;97271.44;4890729;29;20128;-56
2021/12/25 03:17:06;;;;;;;21.88;13.52;;;;;;;-11.42;77.49;97275.41;4890774;29;20047;-55
2021/12/25 03:19:33;;;;;;;22.00;12.27;;;;;;;-11.58;76.01;97269.19;4894542;29;20333;-56
2021/12/25 03:22:00;;;;;;;21.20;11.07;;;;;;;-11.84;76.76;97239.38;4903107;29;20039;-56
2021/12/25 03:24:27;;;;;;;18.70;11.30;;;;;;;-11.67;78.47;97263.94;4891217;29;20060;-59
2021/12/25 03:26:55;;;;;;;23.63;13.40;;;;;;;-11.39;77.37;97255.50;4889868;29;20025;-55
2021/12/25 03:29:21;;;;;;;22.50;12.80;;;;;;;-11.29;77.84;97256.59;4889848;29;20245;-56
2021/12/25 03:31:47;;;;;;;23.13;12.25;;;;;;;-11.51;76.95;97238.56;4888714;29;20044;-55
2021/12/25 03:34:13;;;;;;;23.05;12.68;;;;;;;-11.24;77.72;97245.06;4888706;29;20036;-55
2021/12/25 03:36:38;;;;;;;23.30;12.77;;;;;;;-11.07;76.19;97242.97;4888122;29;20022;-54
2021/12/25 03:39:06;;;;;;;21.02;11.35;;;;;;;-11.11;75.52;97242.03;4890804;29;20347;-55
2021/12/25 03:41:31;;;;;;;23.85;12.10;;;;;;;-11.07;78.03;97229.63;4889598;29;20338;-56
2021/12/25 03:43:57;;;;;;;20.90;11.57;;;;;;;-11.08;77.18;97231.28;4890519;29;20025;-55
2021/12/25 03:46:23;;;;;;;21.52;12.75;;;;;;;-11.14;75.53;97226.16;4888273;29;20101;-56
2021/12/25 03:59:13;;;;;;;20.33;11.57;;;;;;;-11.21;77.72;97219.31;4887735;29;20426;-56
2021/12/25 04:04:33;;;;;;;20.70;11.45;;;;;;;-11.19;77.16;97182.72;4890550;29;20036;-56
2021/12/25 04:07:05;;;;;;;19.48;10.93;;;;;;;-11.06;77.94;97193.84;4886031;29;20057;-55
2021/12/25 04:09:33;;;;;;;22.45;11.70;;;;;;;-10.84;78.54;97185.19;4889353;29;20063;-55
2021/12/25 04:12:04;;;;;;;22.17;11.93;;;;;;;-11.50;76.96;97119.56;4889955;29;20068;-55
2021/12/25 04:14:29;;;;;;;24.90;11.32;;;;;;;-10.94;76.14;97189.13;4890388;29;20076;-56
2021/12/25 04:16:55;;;;;;;21.80;11.18;;;;;;;-11.07;76.17;97183.00;4889155;29;20028;-56
2021/12/25 04:19:21;;;;;;;20.20;10.52;;;;;;;-10.84;77.19;97175.19;4888784;29;20037;-55
2021/12/25 04:21:53;;;;;;;19.35;11.05;;;;;;;-10.90;76.28;97173.41;4889249;29;20029;-56
2021/12/25 04:24:19;;;;;;;18.40;10.70;;;;;;;-10.80;77.97;97160.28;4888749;29;20044;-57
2021/12/25 04:26:47;;;;;;;22.63;13.52;;;;;;;-10.94;76.88;97164.13;4889663;29;20032;-56
2021/12/25 04:29:34;;;;;;;21.40;11.77;;;;;;;-10.88;77.40;97153.44;4889852;29;20045;-55
2021/12/25 04:32:13;;;;;;;20.45;10.57;;;;;;;-10.82;77.09;97133.56;4889658;29;20081;-55
2021/12/25 05:02:14;;;;;;;18.35;10.20;;;;;;;-10.63;77.45;97113.13;4880759;29;20250;-56
2021/12/25 05:04:45;;;;;;;17.20;10.05;;;;;;;-10.81;77.48;97095.28;4887943;29;20040;-56
2021/12/25 05:07:12;;;;;;;;;;;;;;;-10.94;77.17;97104.16;4889789;29;20093;-56
2021/12/25 05:09:38;;;;;;;18.45;10.25;;;;;;;-10.82;76.92;97103.56;4888068;29;20085;-55
2021/12/25 05:12:04;;;;;;;16.73;9.73;;;;;;;-10.72;77.64;97099.59;4887909;29;20065;-55
2021/12/25 05:14:30;;;;;;;19.10;10.23;;;;;;;-10.74;75.92;97096.22;4887350;29;20057;-56
2021/12/25 05:16:55;;;;;;;18.30;10.68;;;;;;;-10.69;76.44;97090.50;4887191;29;20059;-57
2021/12/25 05:19:21;;;;;;;21.48;10.65;;;;;;;-10.73;78.39;97093.75;4888295;29;20084;-56
2021/12/25 05:21:46;;;;;;;19.08;11.32;;;;;;;-10.64;76.75;97093.09;4887748;29;20084;-55
2021/12/25 05:24:12;;;;;;;20.30;10.15;;;;;;;-10.52;78.49;97085.00;4888689;29;20077;-55
2021/12/25 05:26:38;;;;;;;18.05;10.25;;;;;;;-10.52;77.06;97077.50;4889021;29;20276;-55
2021/12/25 05:29:05;;;;;;;19.65;10.65;;;;;;;-10.47;78.28;97081.75;4887918;29;20154;-59
2021/12/25 05:31:34;;;;;;;23.27;9.88;;;;;;;-10.42;78.86;97095.22;4886603;29;20033;-55
2021/12/25 05:34:00;;;;;;;18.98;11.15;;;;;;;-10.35;77.54;97078.63;4887524;29;20080;-56
2021/12/25 05:36:27;;;;;;;20.13;10.43;;;;;;;-10.34;78.50;97072.81;4887970;29;20101;-56
2021/12/25 05:38:58;;;;;;;18.00;10.65;;;;;;;-10.34;77.76;97067.00;4885625;29;20067;-55
2021/12/25 05:41:29;;;;;;;17.15;10.05;;;;;;;-10.33;77.72;97091.13;4887374;29;20045;-55
2021/12/25 05:43:55;;;;;;;21.95;10.38;;;;;;;-10.19;76.93;97067.22;4888117;29;20040;-56
2021/12/25 05:46:22;;;;;;;19.75;11.48;;;;;;;-10.07;78.97;97061.59;4886879;29;20029;-57
2021/12/25 05:48:50;;;;;;;19.42;10.63;;;;;;;-10.12;76.20;97054.00;4887856;29;20065;-57
2021/12/25 05:51:18;;;;;;;20.67;10.43;;;;;;;-10.10;78.11;97074.88;4887900;29;20029;-57
2021/12/25 05:53:43;;;;;;;16.88;9.75;;;;;;;-10.15;76.65;97048.09;4887964;29;20035;-55
2021/12/25 05:56:09;;;;;;;17.83;10.77;;;;;;;-10.21;77.55;97038.00;4888808;29;20037;-56
2021/12/25 05:58:35;;;;;;;15.88;9.63;;;;;;;-10.08;78.80;97044.88;4890532;29;20318;-57
2021/12/25 06:01:01;;;;;;;14.98;9.63;;;;;;;-10.08;78.21;97034.88;4901720;29;20025;-57
2021/12/25 06:03:27;;;;;;;22.27;10.88;;;;;;;-10.13;77.55;97036.44;4887259;29;20213;-57
2021/12/25 06:05:52;;;;;;;19.10;11.35;;;;;;;-10.01;77.59;97035.81;4887634;29;20036;-57
2021/12/25 06:08:18;;;;;;;20.63;10.88;;;;;;;-10.16;78.38;96991.38;4888143;29;20041;-56
2021/12/25 06:10:44;;;;;;;15.45;10.43;;;;;;;-9.83;78.48;97010.22;4888789;29;20026;-56
2021/12/25 06:13:15;;;;;;;24.00;11.10;;;;;;;-9.97;78.37;97015.88;4888021;29;20041;-55
2021/12/25 06:15:42;;;;;;;21.95;12.98;;;;;;;-9.99;77.49;97019.16;4887523;29;20309;-56
2021/12/25 06:18:09;;;;;;;21.75;11.10;;;;;;;-9.95;78.57;97021.72;4888532;29;20044;-56
2021/12/25 06:20:35;;;;;;;16.80;10.23;;;;;;;-10.18;78.26;97013.88;4887587;29;20049;-56
2021/12/25 06:23:00;;;;;;;17.88;10.60;;;;;;;-9.82;79.41;97001.91;4891470;29;20043;-56
2021/12/25 06:25:26;;;;;;;19.27;11.18;;;;;;;-9.79;77.25;97005.31;4892127;29;20040;-55
2021/12/25 06:27:52;;;;;;;16.83;10.43;;;;;;;-9.89;77.67;97000.97;4891007;29;20025;-56
2021/12/25 06:30:17;;;;;;;17.58;10.60;;;;;;;-9.63;78.10;97001.38;4890841;29;20040;-57
2021/12/25 06:32:43;;;;;;;20.00;10.68;;;;;;;-9.81;78.60;96996.91;4890822;29;20050;-56
2021/12/25 06:35:09;;;;;;;17.35;10.90;;;;;;;-9.57;80.02;96993.09;4890760;29;20037;-57
2021/12/25 06:37:35;;;;;;;19.38;11.27;;;;;;;-9.56;78.35;96995.63;4891689;29;20035;-57
2021/12/25 06:40:00;;;;;;;16.88;10.75;;;;;;;-9.54;79.04;96988.13;4891979;29;20335;-56
2021/12/25 06:42:26;;;;;;;18.90;11.40;;;;;;;-9.49;79.17;96975.66;4885977;29;20025;-56
2021/12/25 06:44:51;;;;;;;18.75;11.30;;;;;;;-9.39;77.26;96977.47;4891187;29;20021;-56
2021/12/25 06:47:17;;;;;;;16.83;10.38;;;;;;;-9.34;76.90;96990.91;4891090;29;20044;-55
2021/12/25 06:49:42;;;;;;;23.33;10.75;;;;;;;-9.25;78.34;96980.16;4889926;29;20368;-56
2021/12/25 06:52:08;;;;;;;19.73;11.25;;;;;;;-9.20;78.54;96971.03;4890544;29;20033;-55
2021/12/25 06:54:34;;;;;;;16.20;10.48;;;;;;;-9.50;77.80;96972.31;4890596;29;20040;-57
2021/12/25 06:57:01;;;;;;;19.70;11.30;;;;;;;-9.60;78.78;96968.84;4903898;29;20099;-57
2021/12/25 06:59:28;;;;;;;18.48;10.43;;;;;;;-9.35;77.58;96984.19;4888378;29;20221;-56
2021/12/25 07:01:53;;;;;;;17.80;10.68;;;;;;;-9.34;78.65;96988.38;4888724;29;20057;-55
2021/12/25 07:04:19;;;;;;;18.30;11.18;;;;;;;-9.48;78.47;96975.69;4888255;29;20045;-56
2021/12/25 07:06:44;;;;;;;20.48;11.65;;;;;;;-9.22;78.42;96971.00;4889454;29;20033;-54
2021/12/25 07:09:10;;;;;;;19.20;10.60;;;;;;;-9.23;78.98;96959.31;4903097;29;20037;-57
2021/12/25 07:11:36;;;;;;;18.80;10.52;;;;;;;-9.15;79.33;96971.09;4889180;29;20036;-56
2021/12/25 07:14:04;;;;;;;20.05;11.85;;;;;;;-9.04;78.71;96969.53;4889856;29;20317;-56
2021/12/25 07:16:31;;;;;;;20.85;10.02;;;;;;;-9.28;77.54;96950.88;4886558;29;20041;-56
2021/12/25 07:18:57;;;;;;;19.98;11.55;;;;;;;-9.29;78.91;96953.38;4889818;29;20274;-57
2021/12/25 07:21:23;;;;;;;20.90;10.68;;;;;;;-9.20;80.30;96961.00;4887141;29;20092;-55
2021/12/25 07:23:49;;;;;;;23.38;11.82;;;;;;;-9.06;78.94;96951.16;4888372;29;20348;-55
2021/12/25 07:26:17;;;;;;;22.13;11.95;;;;;;;-8.89;79.81;96949.66;4888770;29;20213;-56
2021/12/25 07:28:44;;;;;;;18.33;10.23;;;;;;;-8.93;79.52;96947.94;4887340;29;20108;-56
2021/12/25 07:31:09;;;;;;;19.40;11.73;;;;;;;-8.89;78.85;96931.25;4886739;29;20345;-56
2021/12/25 07:33:36;;;;;;;22.00;12.13;;;;;;;-8.68;79.02;96939.00;4889208;29;20036;-56
2021/12/25 07:36:03;;;;;;;19.60;11.43;;;;;;;-8.62;78.25;96924.84;4885725;29;20142;-57
2021/12/25 07:38:29;;;;;;;19.38;11.77;;;;;;;-8.67;79.19;96937.34;4887603;29;20088;-56
2021/12/25 07:40:54;;;;;;;23.52;11.88;;;;;;;-8.48;78.96;96935.81;4886085;29;20033;-56
2021/12/25 07:43:20;;;;;;;21.88;12.13;;;;;;;-8.40;78.36;96923.34;4888616;29;20243;-55
2021/12/25 07:45:47;;;;;;;20.73;12.98;;;;;;;-8.31;78.05;96938.44;4886621;29;20372;-55
2021/12/25 07:48:14;;;;;;;24.20;12.05;;;;;;;-8.27;77.86;96935.13;4883758;29;20037;-57
2021/12/25 07:50:40;;;;;;;19.52;11.48;;;;;;;-8.18;78.63;96934.38;4888544;29;20033;-57
2021/12/25 07:53:07;;;;;;;24.80;12.00;;;;;;;-8.32;78.34;96927.59;4887670;29;20048;-57
2021/12/25 07:55:33;;;;;;;18.15;11.45;;;;;;;-8.37;77.34;96935.91;4887296;29;20107;-59
2021/12/25 07:57:59;;;;;;;23.08;12.13;;;;;;;-8.45;77.09;96927.50;4888505;29;20097;-57
2021/12/25 08:00:25;;;;;;;23.15;11.45;;;;;;;-8.33;78.06;96925.06;4888601;29;20037;-56
2021/12/25 08:02:51;;;;;;;18.88;10.32;;;;;;;-8.59;77.62;96940.75;4885840;29;20080;-55
2021/12/25 08:05:17;;;;;;;23.95;12.85;;;;;;;-8.42;78.26;96919.94;4887965;29;20073;-56
2021/12/25 08:07:43;;;;;;;24.20;12.82;;;;;;;-8.50;78.80;96910.72;4885964;29;20041;-56
2021/12/25 08:10:13;;;;;;;24.92;12.55;;;;;;;-8.27;77.71;96919.25;4887230;29;20040;-57
2021/12/25 08:12:41;;;;;;;19.75;11.70;;;;;;;-8.53;77.89;96858.03;4887061;29;20049;-59
2021/12/25 08:15:08;;;;;;;22.85;12.90;;;;;;;-8.16;77.49;96918.50;4886419;29;20032;-58
2021/12/25 08:17:34;;;;;;;24.55;13.93;;;;;;;-8.29;78.28;96925.91;4887205;29;20112;-58
2021/12/25 08:19:59;;;;;;;26.08;12.20;;;;;;;-8.18;78.63;96916.78;4885972;29;20333;-58
2021/12/25 08:22:25;;;;;;;23.17;12.82;;;;;;;-7.99;78.74;96905.22;4885189;29;20024;-57
2021/12/25 08:24:51;;;;;;;22.40;12.48;;;;;;;-8.01;78.50;96917.78;4887276;29;20060;-56
2021/12/25 08:27:17;;;;;;;23.08;12.40;;;;;;;-8.10;77.83;96907.66;4888358;29;20033;-58
2021/12/25 08:29:43;;;;;;;21.75;13.05;;;;;;;-7.93;78.86;96914.47;4888188;29;20341;-57
2021/12/25 08:32:09;;;;;;;21.10;13.20;;;;;;;-7.81;78.64;96904.47;4889291;29;20053;-58
2021/12/25 08:34:35;;;;;;;21.30;13.23;;;;;;;-7.64;77.93;96902.06;4887183;29;20040;-57
2021/12/25 08:37:00;;;;;;;23.75;12.60;;;;;;;-7.76;77.84;96895.31;4888961;29;20063;-58
2021/12/25 08:39:26;;;;;;;22.70;13.35;;;;;;;-7.58;77.46;96891.22;4901575;29;20356;-58
2021/12/25 08:42:00;;;;;;;23.65;13.27;;;;;;;-7.88;77.29;96845.00;4889989;29;20309;-56
2021/12/25 08:44:33;;;;;;;18.02;12.23;;;;;;;-7.54;78.42;96913.88;4886891;29;20120;-56
2021/12/25 08:47:00;;;;;;;21.90;13.52;;;;;;;-7.56;78.02;96907.97;4880181;29;20037;-58
2021/12/25 08:49:29;;;;;;;24.05;13.20;;;;;;;-7.56;77.86;96910.47;4880753;29;20104;-56
2021/12/25 08:51:56;;;;;;;23.58;13.43;;;;;;;-7.37;78.04;96900.50;4888294;29;20041;-57
2021/12/25 08:54:22;;;;;;;27.65;14.70;;;;;;;-7.25;78.08;96898.06;4887049;29;20075;-58
2021/12/25 08:56:48;;;;;;;23.98;14.77;;;;;;;-7.31;78.16;96898.00;4888669;29;20036;-58
2021/12/25 08:59:14;;;;;;;25.27;15.38;;;;;;;-7.34;78.08;96900.53;4889035;29;20095;-58
2021/12/25 09:01:40;;;;;;;21.58;13.93;;;;;;;-7.21;77.40;96892.22;4888590;29;20048;-59
2021/12/25 09:04:06;;;;;;;24.55;15.10;;;;;;;-7.26;77.21;96891.34;4888489;29;20326;-60
2021/12/25 09:06:33;;;;;;;24.00;13.60;;;;;;;-7.31;78.31;96898.00;4888971;29;20052;-59
2021/12/25 09:08:59;;;;;;;21.38;13.52;;;;;;;-7.30;77.58;96887.97;4888259;29;20040;-60
2021/12/25 09:11:24;;;;;;;20.58;13.73;;;;;;;-7.24;77.10;96888.84;4887433;29;20036;-60
2021/12/25 09:13:51;;;;;;;26.38;13.93;;;;;;;-7.30;77.57;96892.16;4896698;29;20037;-59
2021/12/25 09:16:16;;;;;;;25.20;13.52;;;;;;;-7.30;78.66;96867.84;4894715;29;20188;-58
2021/12/25 09:18:42;;;;;;;23.00;14.27;;;;;;;-7.01;77.62;96888.88;4887836;29;20047;-58
2021/12/25 09:21:08;;;;;;;27.23;13.93;;;;;;;-7.04;77.82;96889.75;4884986;29;20032;-57
2021/12/25 09:23:35;;;;;;;22.50;13.38;;;;;;;-6.94;77.68;96896.47;4888620;29;20065;-59
2021/12/25 09:26:00;;;;;;;20.40;13.43;;;;;;;-6.90;77.34;96897.31;4880711;29;20029;-59
2021/12/25 09:28:26;;;;;;;23.60;13.73;;;;;;;-6.84;77.10;96891.44;4887776;29;20044;-59
2021/12/25 09:30:52;;;;;;;21.83;12.93;;;;;;;-6.80;77.48;96873.88;4889187;29;20096;-60
2021/12/25 09:33:17;;;;;;;22.48;13.07;;;;;;;-6.67;77.53;96889.81;4888177;29;20025;-60
2021/12/25 09:35:43;;;;;;;24.75;13.73;;;;;;;-6.62;77.64;96895.66;4888897;29;20096;-60
2021/12/25 09:38:09;;;;;;;25.85;14.57;;;;;;;-6.63;77.37;96895.66;4888542;29;20052;-61
2021/12/25 09:40:35;;;;;;;26.20;12.52;;;;;;;-6.76;77.66;96900.69;4902200;29;20072;-58
2021/12/25 09:43:01;;;;;;;18.95;11.82;;;;;;;-6.72;78.76;96898.19;4887639;29;20024;-62
2021/12/25 09:45:26;;;;;;;21.25;12.55;;;;;;;-6.47;78.21;96904.94;4887675;29;20225;-59
2021/12/25 09:47:52;;;;;;;20.25;13.07;;;;;;;-6.34;77.93;96908.28;4887301;29;20045;-60
2021/12/25 09:50:18;;;;;;;22.08;12.77;;;;;;;-6.34;78.21;96905.78;4888517;29;20303;-60
2021/12/25 09:52:44;;;;;;;22.80;12.70;;;;;;;-6.32;77.58;96898.22;4887478;29;20051;-61
2021/12/25 09:55:12;;;;;;;21.33;12.00;;;;;;;-6.44;75.93;96887.31;4888304;29;20056;-59
2021/12/25 09:57:39;;;;;;;21.15;12.02;;;;;;;-6.43;75.16;96918.34;4890930;29;20045;-63
2021/12/25 10:00:23;;;;;;;20.70;11.93;;;;;;;-6.49;75.78;96905.75;4890453;29;20064;-63
2021/12/25 10:02:55;;;;;;;19.67;11.35;;;;;;;-6.57;75.76;96920.84;4892522;29;20037;-59
2021/12/25 10:05:34;;;;;;;19.90;11.85;;;;;;;-6.48;76.51;96915.00;4891658;29;20045;-59
2021/12/25 10:08:08;;;;;;;24.48;12.63;;;;;;;-6.43;76.74;96930.94;4887291;29;20409;-58
2021/12/25 10:10:43;;;;;;;19.55;12.52;;;;;;;-6.35;76.66;96930.94;4884181;29;20087;-59
2021/12/25 10:13:17;;;;;;;21.10;13.40;;;;;;;-6.37;75.07;96937.66;4889409;29;20121;-61
2021/12/25 10:15:43;;;;;;;17.63;12.10;;;;;;;-6.43;75.07;96930.94;4893397;29;20059;-60
2021/12/25 10:18:08;;;;;;;22.60;12.48;;;;;;;-6.46;75.41;96948.53;4892841;29;20334;-60
2021/12/25 10:20:34;;;;;;;20.58;12.38;;;;;;;-6.49;75.83;96941.81;4879363;29;20096;-59
2021/12/25 10:23:12;;;;;;;20.65;13.02;;;;;;;-6.32;76.56;96968.72;4892310;29;20103;-60
2021/12/25 10:26:01;;;;;;;17.83;11.13;;;;;;;-6.78;75.92;96909.91;4894289;29;20052;-58
2021/12/25 10:28:31;;;;;;;19.05;12.30;;;;;;;-6.40;76.48;96958.63;4895101;29;20300;-58
2021/12/25 10:31:03;;;;;;;17.73;11.73;;;;;;;-6.42;74.95;96955.28;5076503;24;20061;-58
2021/12/25 10:33:51;;;;;;;18.15;11.98;;;;;;;-6.65;75.61;96913.28;4857299;29;20041;-61
2021/12/25 10:36:34;;;;;;;18.58;11.48;;;;;;;-6.68;74.94;96919.97;4855617;29;20068;-62
2021/12/25 10:41:39;;;;;;;17.90;11.55;;;;;;;-6.45;74.77;97005.63;4988757;23;20069;-62
2021/12/25 10:44:15;;;;;;;14.77;9.20;;;;;;;-6.44;73.93;96999.72;4873881;29;20331;-61
2021/12/25 10:46:54;;;;;;;17.35;9.85;;;;;;;-7.14;74.15;96921.56;4878180;29;20048;-65
2021/12/25 10:49:31;;;;;;;18.83;10.30;;;;;;;-6.57;75.36;97003.06;4875291;29;20081;-62
2021/12/25 10:52:31;;;;;;;15.93;10.43;;;;;;;-6.50;74.39;97007.28;4871875;29;20044;-60
2021/12/25 10:55:13;;;;;;;17.40;10.43;;;;;;;-6.85;73.66;96943.44;4870307;29;20037;-61
2021/12/25 10:57:45;;;;;;;17.65;10.15;;;;;;;-6.53;73.82;97002.22;4854626;29;20125;-60
2021/12/25 11:00:13;;;;;;;19.65;10.65;;;;;;;-6.32;74.88;97024.94;4871991;29;20057;-59
2021/12/25 11:02:45;;;;;;;15.23;9.40;;;;;;;-6.91;74.11;96957.66;4870906;29;20089;-62
2021/12/25 11:05:23;;;;;;;15.10;9.30;;;;;;;-6.72;74.60;96956.06;4856357;29;20043;-61
2021/12/25 11:08:07;;;;;;;15.75;10.30;;;;;;;-6.28;72.47;97028.31;4870493;29;20073;-59
2021/12/25 11:10:48;;;;;;;20.00;9.35;;;;;;;-6.82;72.93;96963.56;4870475;29;20044;-58
2021/12/25 11:13:16;;;;;;;15.02;9.10;;;;;;;-6.46;73.39;97034.97;4871627;29;20062;-60
2021/12/25 11:15:42;;;;;;;17.58;8.10;;;;;;;-6.50;73.57;97020.72;4870334;29;20044;-59
2021/12/25 11:18:09;;;;;;;15.00;9.55;;;;;;;-6.45;74.08;97044.19;4870074;29;20034;-58
2021/12/25 11:20:38;;;;;;;14.68;8.63;;;;;;;-6.52;73.61;97046.72;4856134;29;20049;-58
2021/12/25 11:23:06;;;;;;;14.38;8.48;;;;;;;-6.46;72.45;97080.28;4871481;29;20102;-58
2021/12/25 11:25:34;;;;;;;12.52;8.38;;;;;;;-6.34;72.28;97068.56;4855751;29;20049;-57
2021/12/25 11:28:01;;;;;;;13.40;7.65;;;;;;;-6.60;72.91;97074.34;4871081;29;20045;-60
2021/12/25 11:30:30;;;;;;;14.43;7.65;;;;;;;-6.86;72.08;97003.81;4871249;29;20037;-57
2021/12/25 11:32:57;;;;;;;13.30;7.85;;;;;;;-6.30;72.44;97072.78;4870836;29;20037;-59
2021/12/25 11:35:23;;;;;;;13.35;7.70;;;;;;;-6.62;72.36;97084.41;4871376;29;20033;-60
2021/12/25 11:37:52;;;;;;;14.38;7.32;;;;;;;-6.90;71.57;97022.25;4854961;29;20166;-60
2021/12/25 11:40:21;;;;;;;11.82;6.63;;;;;;;-6.60;71.06;97095.34;4855126;29;20057;-58
2021/12/25 11:42:53;;;;;;;11.85;6.95;;;;;;;-6.47;72.36;97108.81;4870982;29;20045;-58
2021/12/25 11:45:25;;;;;;;12.20;7.10;;;;;;;-6.68;71.83;97046.66;4871134;29;20056;-60
2021/12/25 11:47:54;;;;;;;11.98;7.32;;;;;;;-6.35;71.40;97092.09;4855041;29;20138;-59
2021/12/25 11:50:33;;;;;;;11.18;7.20;;;;;;;-6.29;71.64;97110.53;4870548;29;20036;-59
2021/12/25 11:53:07;;;;;;;9.95;5.68;;;;;;;-6.42;70.29;97107.16;4869680;29;20033;-58
2021/12/25 11:58:37;;;;;;;11.05;6.28;;;;;;;-6.56;71.71;97133.09;4870568;29;20025;-58
2021/12/25 12:00:52;;;;;;;8.05;5.78;;;;;;;-6.59;70.62;97131.41;4870241;29;20057;-59
2021/12/25 12:03:38;;;;;;;10.70;6.20;;;;;;;-6.90;70.72;97068.34;4870621;29;20028;-58
2021/12/25 12:06:07;;;;;;;9.98;5.70;;;;;;;-6.56;72.20;97133.94;4870581;29;20030;-58
2021/12/25 12:08:55;;;;;;;10.38;6.10;;;;;;;-6.55;71.67;97139.84;4869091;29;20337;-58
2021/12/25 12:11:27;;;;;;;10.95;6.40;;;;;;;-7.06;71.44;97092.56;4870011;29;20153;-59
2021/12/25 12:14:20;;;;;;;9.40;5.32;;;;;;;-6.69;71.50;97174.97;4870259;29;20350;-59
2021/12/25 12:17:06;;;;;;;7.43;4.72;;;;;;;-6.76;71.87;97177.44;4870343;29;20033;-58
2021/12/25 12:19:36;;;;;;;9.38;5.07;;;;;;;-6.85;72.15;97181.59;4869204;29;20043;-59
2021/12/25 12:22:16;;;;;;;7.63;4.75;;;;;;;-6.82;72.87;97181.63;4870106;29;20041;-58
2021/12/25 12:27:29;;;;;;;7.18;4.05;;;;;;;-6.92;72.65;97215.91;4870000;29;20326;-58
2021/12/25 12:29:54;;;;;;;8.27;3.38;;;;;;;-6.92;71.02;97215.91;4869039;29;20029;-59
2021/12/25 12:32:20;;;;;;;5.43;3.42;;;;;;;-6.88;71.82;97224.31;4870207;29;20039;-60
2021/12/25 12:34:47;;;;;;;5.78;3.85;;;;;;;-6.85;70.70;97226.88;4870168;29;20051;-60
2021/12/25 12:37:19;;;;;;;8.90;3.72;;;;;;;-6.80;71.03;97236.16;4869126;29;20029;-59
2021/12/25 12:39:44;;;;;;;;;;;;;;;-6.90;72.09;97229.34;4869176;29;20044;-58
2021/12/25 12:42:14;;;;;;;5.40;3.55;;;;;;;-7.00;72.55;97230.09;4854487;29;19932;-57
2021/12/25 12:44:39;;;;;;;6.13;4.03;;;;;;;-6.91;72.15;97242.78;4868986;29;20340;-59
2021/12/25 12:47:17;;;;;;;6.88;4.50;;;;;;;-6.79;73.03;97245.34;4869103;29;20063;-60